CMA-CGM Fort Saint Pierre — FQFM — position and weather

sailwx.info

Track history (hours):
 
Tides and Currents Weather Stations Pressure Air Temp Water Temp Dewpoint Dewpoint Depression Visibility Wind Speed Wind Dir Waves Ship Positions

CMA-CGM Fort Saint Pierre

Last reported at 2015-May-24 02:11 UTC. Time now 2015-May-28 03:55 UTC.
Position N 16°10' W 061°31'.

Length 197 m; beam 30 m.

Type: Ship (hazmat cat A). MMSI: 226328000.

Date/timePositionNaut miles runAvg speedWind from/ knotsBaromVisibWave heightAir tempDewpointWater temp
2015-May-24 02:11N 16°10' W 061°31'5 7.2
2015-May-24 01:33N 16°14' W 061°32'0 0.3
2015-May-24 00:29N 16°14' W 061°33'0 0.0
2015-May-23 23:26N 16°14' W 061°33'0 0.0
2015-May-23 22:32N 16°14' W 061°33'0 0.0
2015-May-23 21:32N 16°14' W 061°33'0 0.0
2015-May-23 20:26N 16°14' W 061°33'0 0.0
2015-May-23 19:26N 16°14' W 061°33'0 0.0
2015-May-23 18:32N 16°14' W 061°33'0 0.0
2015-May-23 17:14N 16°14' W 061°33'0 0.0
2015-May-23 16:26N 16°14' W 061°33'0 0.0
2015-May-23 15:14N 16°14' W 061°33'0 0.0
2015-May-23 14:32N 16°14' W 061°33'0 0.0
2015-May-23 13:29N 16°14' W 061°33'0 0.0
2015-May-23 12:29N 16°14' W 061°33'0 0.0
2015-May-23 11:32N 16°14' W 061°33'0 0.0
2015-May-23 07:29N 16°14' W 061°33'1 0.2
2015-May-23 03:31N 16°13' W 061°32'5 3.5
2015-May-23 02:12N 16°09' W 061°30'2 3.1
2015-May-23 01:31N 16°08' W 061°28'3411.1
2015-May-22 22:26N 15°34' W 061°33'3015.9
2015-May-22 20:33N 15°05' W 061°24'1717.1
2015-May-22 19:34N 14°49' W 061°18'1817.9
2015-May-22 18:33N 14°36' W 061°07'3 3.4
2015-May-22 17:32N 14°35' W 061°03'0 0.0
2015-May-22 16:32N 14°35' W 061°03'0 0.0
2015-May-22 15:32N 14°35' W 061°03'0 0.0
2015-May-22 14:32N 14°35' W 061°03'0 0.0
2015-May-22 13:32N 14°35' W 061°03'0 0.0
2015-May-22 12:32N 14°35' W 061°03'0 0.0
2015-May-22 11:32N 14°35' W 061°03'0 0.0
2015-May-22 10:32N 14°35' W 061°03'0 0.0
2015-May-22 09:32N 14°35' W 061°03'0 0.0
2015-May-22 08:32N 14°35' W 061°03'0 0.0
2015-May-22 07:32N 14°35' W 061°03'0 0.0
2015-May-22 06:32N 14°35' W 061°03'0 0.0
2015-May-22 05:32N 14°35' W 061°03'0 0.0
2015-May-22 04:32N 14°35' W 061°03'0 0.0
2015-May-22 03:32N 14°35' W 061°03'0 0.0
2015-May-22 02:32N 14°35' W 061°03'0 0.0
2015-May-22 01:32N 14°35' W 061°03'0 0.0
2015-May-22 00:32N 14°35' W 061°03'0 0.0
2015-May-21 23:32N 14°35' W 061°03'0 0.0
2015-May-21 22:32N 14°35' W 061°03'0 0.0
2015-May-21 21:32N 14°35' W 061°03'0 0.0
2015-May-21 20:32N 14°35' W 061°03'0 0.0
2015-May-21 19:32N 14°35' W 061°03'0 0.0
2015-May-21 18:32N 14°35' W 061°03'0 0.0
2015-May-21 17:32N 14°35' W 061°03'0 0.0
2015-May-21 16:32N 14°35' W 061°03'0 0.0
2015-May-21 15:32N 14°35' W 061°03'0 0.0
2015-May-21 14:32N 14°35' W 061°03'0 0.0
2015-May-21 13:32N 14°35' W 061°03'0 0.0
2015-May-21 12:32N 14°35' W 061°03'0 0.0
2015-May-21 11:32N 14°35' W 061°03'0 0.0
2015-May-21 10:32N 14°35' W 061°03'0 0.0
2015-May-21 09:32N 14°35' W 061°03'0 0.0
2015-May-21 08:32N 14°35' W 061°03'0 0.0
2015-May-21 07:32N 14°35' W 061°03'0 0.0
2015-May-21 06:32N 14°35' W 061°03'0 0.0
2015-May-21 05:32N 14°35' W 061°03'0 0.0
2015-May-21 04:32N 14°35' W 061°03'0 0.0
2015-May-21 03:32N 14°35' W 061°03'0 0.0
2015-May-21 02:32N 14°35' W 061°03'0 0.0
2015-May-21 01:32N 14°35' W 061°03'0 0.0
2015-May-21 00:32N 14°35' W 061°03'0 0.0
2015-May-20 23:32N 14°35' W 061°03'0 0.0
2015-May-20 22:32N 14°35' W 061°03'0 0.0
2015-May-20 21:32N 14°35' W 061°03'0 0.0
2015-May-20 20:32N 14°35' W 061°03'0 0.0
2015-May-20 19:32N 14°35' W 061°03'0 0.0
2015-May-20 18:32N 14°35' W 061°03'0 0.0
2015-May-20 17:32N 14°35' W 061°03'0 0.0
2015-May-20 16:32N 14°35' W 061°03'0 0.0
2015-May-20 15:32N 14°35' W 061°03'0 0.0
2015-May-20 14:32N 14°35' W 061°03'0 0.0
2015-May-20 13:32N 14°35' W 061°03'0 0.0
2015-May-20 12:32N 14°35' W 061°03'0 0.0
2015-May-20 11:32N 14°35' W 061°03'0 0.0
2015-May-20 10:32N 14°35' W 061°03'2 2.3
2015-May-20 09:33N 14°35' W 061°05'7 6.5
2015-May-20 08:33N 14°37' W 061°12'1010.1
2015-May-20 07:33N 14°46' W 061°17'1310.7
2015-May-20 06:23N 14°58' W 061°21'3110.8
2015-May-20 03:28N 15°27' W 061°32'1210.5
2015-May-20 02:21N 15°39' W 061°33'1010.8
2015-May-20 01:28N 15°48' W 061°30'1311.1
2015-May-20 00:16N 16°01' W 061°28'9 9.5
2015-May-19 23:19N 16°10' W 061°31'4 4.8
2015-May-19 22:26N 16°14' W 061°33'0 0.0
2015-May-19 18:32N 16°14' W 061°33'0 0.0
2015-May-19 15:23N 16°14' W 061°33'0 0.0
2015-May-19 14:31N 16°14' W 061°33'0 0.0
2015-May-19 13:29N 16°14' W 061°33'0 0.0
2015-May-19 10:29N 16°14' W 061°33'0 0.0
2015-May-18 22:10N 16°14' W 061°33'0 0.0
2015-May-18 21:28N 16°14' W 061°33'0 0.0
2015-May-18 20:04N 16°14' W 061°33'0 0.0
2015-May-18 19:28N 16°14' W 061°33'0 0.1
2015-May-18 16:15N 16°14' W 061°32'6 6.0
2015-May-18 15:11N 16°08' W 061°29'911.4
2015-May-18 14:21N 16°07' W 061°19'  
2015-May-14 07:11N 34°49' W 031°57'  
Track history (hours):
 
Tides and Currents Weather Stations Pressure Air Temp Water Temp Dewpoint Dewpoint Depression Visibility Wind Speed Wind Dir Waves Ship Positions

CMA-CGM Fort Saint Pierre

Last reported at 2015-May-24 02:11 UTC. Time now 2015-May-28 03:55 UTC.
Position N 16°10' W 061°31'.

Length 197 m; beam 30 m.

Type: Ship (hazmat cat A). MMSI: 226328000.

Date/timePositionNaut miles runAvg speedWind from/ knotsBaromVisibWave heightAir tempDewpointWater temp
2015-May-24 02:11N 16°10' W 061°31'5 7.2
2015-May-24 01:33N 16°14' W 061°32'0 0.3
2015-May-24 00:29N 16°14' W 061°33'0 0.0
2015-May-23 23:26N 16°14' W 061°33'0 0.0
2015-May-23 22:32N 16°14' W 061°33'0 0.0
2015-May-23 21:32N 16°14' W 061°33'0 0.0
2015-May-23 20:26N 16°14' W 061°33'0 0.0
2015-May-23 19:26N 16°14' W 061°33'0 0.0
2015-May-23 18:32N 16°14' W 061°33'0 0.0
2015-May-23 17:14N 16°14' W 061°33'0 0.0
2015-May-23 16:26N 16°14' W 061°33'0 0.0
2015-May-23 15:14N 16°14' W 061°33'0 0.0
2015-May-23 14:32N 16°14' W 061°33'0 0.0
2015-May-23 13:29N 16°14' W 061°33'0 0.0
2015-May-23 12:29N 16°14' W 061°33'0 0.0
2015-May-23 11:32N 16°14' W 061°33'0 0.0
2015-May-23 07:29N 16°14' W 061°33'1 0.2
2015-May-23 03:31N 16°13' W 061°32'5 3.5
2015-May-23 02:12N 16°09' W 061°30'2 3.1
2015-May-23 01:31N 16°08' W 061°28'3411.1
2015-May-22 22:26N 15°34' W 061°33'3015.9
2015-May-22 20:33N 15°05' W 061°24'1717.1
2015-May-22 19:34N 14°49' W 061°18'1817.9
2015-May-22 18:33N 14°36' W 061°07'3 3.4
2015-May-22 17:32N 14°35' W 061°03'0 0.0
2015-May-22 16:32N 14°35' W 061°03'0 0.0
2015-May-22 15:32N 14°35' W 061°03'0 0.0
2015-May-22 14:32N 14°35' W 061°03'0 0.0
2015-May-22 13:32N 14°35' W 061°03'0 0.0
2015-May-22 12:32N 14°35' W 061°03'0 0.0
2015-May-22 11:32N 14°35' W 061°03'0 0.0
2015-May-22 10:32N 14°35' W 061°03'0 0.0
2015-May-22 09:32N 14°35' W 061°03'0 0.0
2015-May-22 08:32N 14°35' W 061°03'0 0.0
2015-May-22 07:32N 14°35' W 061°03'0 0.0
2015-May-22 06:32N 14°35' W 061°03'0 0.0
2015-May-22 05:32N 14°35' W 061°03'0 0.0
2015-May-22 04:32N 14°35' W 061°03'0 0.0
2015-May-22 03:32N 14°35' W 061°03'0 0.0
2015-May-22 02:32N 14°35' W 061°03'0 0.0
2015-May-22 01:32N 14°35' W 061°03'0 0.0
2015-May-22 00:32N 14°35' W 061°03'0 0.0
2015-May-21 23:32N 14°35' W 061°03'0 0.0
2015-May-21 22:32N 14°35' W 061°03'0 0.0
2015-May-21 21:32N 14°35' W 061°03'0 0.0
2015-May-21 20:32N 14°35' W 061°03'0 0.0
2015-May-21 19:32N 14°35' W 061°03'0 0.0
2015-May-21 18:32N 14°35' W 061°03'0 0.0
2015-May-21 17:32N 14°35' W 061°03'0 0.0
2015-May-21 16:32N 14°35' W 061°03'0 0.0
2015-May-21 15:32N 14°35' W 061°03'0 0.0
2015-May-21 14:32N 14°35' W 061°03'0 0.0
2015-May-21 13:32N 14°35' W 061°03'0 0.0
2015-May-21 12:32N 14°35' W 061°03'0 0.0
2015-May-21 11:32N 14°35' W 061°03'0 0.0
2015-May-21 10:32N 14°35' W 061°03'0 0.0
2015-May-21 09:32N 14°35' W 061°03'0 0.0
2015-May-21 08:32N 14°35' W 061°03'0 0.0
2015-May-21 07:32N 14°35' W 061°03'0 0.0
2015-May-21 06:32N 14°35' W 061°03'0 0.0
2015-May-21 05:32N 14°35' W 061°03'0 0.0
2015-May-21 04:32N 14°35' W 061°03'0 0.0
2015-May-21 03:32N 14°35' W 061°03'0 0.0
2015-May-21 02:32N 14°35' W 061°03'0 0.0
2015-May-21 01:32N 14°35' W 061°03'0 0.0
2015-May-21 00:32N 14°35' W 061°03'0 0.0
2015-May-20 23:32N 14°35' W 061°03'0 0.0
2015-May-20 22:32N 14°35' W 061°03'0 0.0
2015-May-20 21:32N 14°35' W 061°03'0 0.0
2015-May-20 20:32N 14°35' W 061°03'0 0.0
2015-May-20 19:32N 14°35' W 061°03'0 0.0
2015-May-20 18:32N 14°35' W 061°03'0 0.0
2015-May-20 17:32N 14°35' W 061°03'0 0.0
2015-May-20 16:32N 14°35' W 061°03'0 0.0
2015-May-20 15:32N 14°35' W 061°03'0 0.0
2015-May-20 14:32N 14°35' W 061°03'0 0.0
2015-May-20 13:32N 14°35' W 061°03'0 0.0
2015-May-20 12:32N 14°35' W 061°03'0 0.0
2015-May-20 11:32N 14°35' W 061°03'0 0.0
2015-May-20 10:32N 14°35' W 061°03'2 2.3
2015-May-20 09:33N 14°35' W 061°05'7 6.5
2015-May-20 08:33N 14°37' W 061°12'1010.1
2015-May-20 07:33N 14°46' W 061°17'1310.7
2015-May-20 06:23N 14°58' W 061°21'3110.8
2015-May-20 03:28N 15°27' W 061°32'1210.5
2015-May-20 02:21N 15°39' W 061°33'1010.8
2015-May-20 01:28N 15°48' W 061°30'1311.1
2015-May-20 00:16N 16°01' W 061°28'9 9.5
2015-May-19 23:19N 16°10' W 061°31'4 4.8
2015-May-19 22:26N 16°14' W 061°33'0 0.0
2015-May-19 18:32N 16°14' W 061°33'0 0.0
2015-May-19 15:23N 16°14' W 061°33'0 0.0
2015-May-19 14:31N 16°14' W 061°33'0 0.0
2015-May-19 13:29N 16°14' W 061°33'0 0.0
2015-May-19 10:29N 16°14' W 061°33'0 0.0
2015-May-18 22:10N 16°14' W 061°33'0 0.0
2015-May-18 21:28N 16°14' W 061°33'0 0.0
2015-May-18 20:04N 16°14' W 061°33'0 0.0
2015-May-18 19:28N 16°14' W 061°33'0 0.1
2015-May-18 16:15N 16°14' W 061°32'6 6.0
2015-May-18 15:11N 16°08' W 061°29'911.4
2015-May-18 14:21N 16°07' W 061°19'  
2015-May-14 07:11N 34°49' W 031°57'  

Dump ship's entire track history